Time;durP1;ratioP1;P1;durP2;ratioP2;P2;SDS_P1;SDS_P2;PMS_P1;PMS_P2;Temp;Humidity;BMP_temperature;BMP_pressure;BME280_temperature;BME280_humidity;BME280_pressure;Samples;Min_cycle;Max_cycle;Signal;HPM_P1;HPM_P2
2022/06/07 00:02:33;;;;;;;0.50;0.50;;;16.60;99.90;;;;;;4323414;33;20068;-90
2022/06/07 00:05:22;;;;;;;1.70;0.68;;;16.70;99.90;;;;;;4323147;33;20079;-89
2022/06/07 00:08:16;;;;;;;0.30;0.30;;;16.70;99.90;;;;;;4321633;33;20100;-89
2022/06/07 00:11:04;;;;;;;0.40;0.40;;;16.70;99.90;;;;;;4324244;33;20100;-88
2022/06/07 00:13:47;;;;;;;1.05;0.40;;;16.60;99.90;;;;;;4324870;33;20087;-89
2022/06/07 00:16:22;;;;;;;0.98;0.62;;;16.40;99.90;;;;;;4325753;33;20251;-88
2022/06/07 00:18:54;;;;;;;1.05;0.57;;;16.40;99.90;;;;;;4325271;33;20108;-89
2022/06/07 00:21:29;;;;;;;3.58;0.70;;;16.30;99.90;;;;;;4327690;33;20079;-89
2022/06/07 00:24:06;;;;;;;0.55;0.55;;;16.30;99.90;;;;;;4327379;33;20143;-89
2022/06/07 00:26:58;;;;;;;0.37;0.37;;;16.20;99.90;;;;;;4328985;33;20059;-89
2022/06/07 00:29:39;;;;;;;0.30;0.30;;;16.30;99.90;;;;;;4327517;33;20087;-89
2022/06/07 00:32:30;;;;;;;0.40;0.40;;;16.20;99.90;;;;;;4329704;33;20067;-91
2022/06/07 00:35:05;;;;;;;0.70;0.50;;;16.10;99.90;;;;;;4327625;33;20075;-89
2022/06/07 00:37:50;;;;;;;0.50;0.50;;;16.10;99.90;;;;;;4327172;33;20128;-89
2022/06/07 00:40:29;;;;;;;1.35;0.50;;;16.10;99.90;;;;;;4324082;33;20068;-89
2022/06/07 00:43:45;;;;;;;0.60;0.60;;;16.10;99.90;;;;;;4325749;33;20111;-90
2022/06/07 00:46:24;;;;;;;0.43;0.43;;;16.10;99.90;;;;;;4326700;33;20072;-89
2022/06/07 00:49:18;;;;;;;0.85;0.62;;;16.10;99.90;;;;;;4320841;33;20079;-89
2022/06/07 00:52:08;;;;;;;0.30;0.30;;;16.00;99.90;;;;;;4324981;33;20135;-88
2022/06/07 00:54:45;;;;;;;0.60;0.60;;;16.00;99.90;;;;;;4322818;33;20088;-89
2022/06/07 00:57:18;;;;;;;3.28;0.70;;;15.90;99.90;;;;;;4326423;33;20084;-88
2022/06/07 00:59:51;;;;;;;0.60;0.60;;;16.00;99.90;;;;;;4325798;33;20083;-89
2022/06/07 01:02:21;;;;;;;0.43;0.40;;;16.00;99.90;;;;;;4324936;33;20465;-89
2022/06/07 01:04:49;;;;;;;0.68;0.25;;;16.00;99.90;;;;;;4324959;33;20084;-88
2022/06/07 01:11:02;;;;;;;0.25;0.25;;;16.00;99.90;;;;;;4325024;33;20417;-89
2022/06/07 01:13:54;;;;;;;0.40;0.40;;;16.00;99.90;;;;;;4312166;33;20072;-90
2022/06/07 01:16:34;;;;;;;0.60;0.40;;;15.90;99.90;;;;;;4325233;33;20084;-89
2022/06/07 01:19:12;;;;;;;0.32;0.32;;;15.90;99.90;;;;;;4324878;33;20075;-88
2022/06/07 01:21:46;;;;;;;0.90;0.50;;;16.00;99.90;;;;;;4325181;33;20179;-89
2022/06/07 01:24:23;;;;;;;0.80;0.65;;;15.90;99.90;;;;;;4324113;33;20107;-88
2022/06/07 01:26:54;;;;;;;4.35;0.55;;;15.90;99.90;;;;;;4325449;33;20124;-89
2022/06/07 01:29:32;;;;;;;1.75;1.05;;;15.80;99.90;;;;;;4324322;33;20071;-89
2022/06/07 01:32:05;;;;;;;0.52;0.52;;;15.80;99.90;;;;;;4165247;33;5352961;-88
2022/06/07 01:34:44;;;;;;;0.40;0.40;;;15.80;99.90;;;;;;4320118;33;20063;-90
2022/06/07 01:37:19;;;;;;;0.40;0.40;;;15.80;99.90;;;;;;4323891;33;20124;-90
2022/06/07 01:41:57;;;;;;;;;;;15.80;99.90;;;;;;4322309;33;20087;-90
2022/06/07 01:43:01;;;;;;;0.55;0.50;;;15.60;99.90;;;;;;4323013;33;20320;-90
2022/06/07 01:45:33;;;;;;;0.57;0.57;;;15.60;99.90;;;;;;4324211;33;20069;-90
2022/06/07 01:48:11;;;;;;;0.73;0.73;;;15.60;99.90;;;;;;4324442;33;20076;-90
2022/06/07 01:50:45;;;;;;;0.60;0.60;;;15.60;99.90;;;;;;4321638;33;20139;-90
2022/06/07 01:53:23;;;;;;;1.65;0.50;;;15.60;99.90;;;;;;4321649;33;20076;-90
2022/06/07 01:56:28;;;;;;;0.60;0.60;;;15.50;99.90;;;;;;4322560;33;20194;-90
2022/06/07 01:59:08;;;;;;;1.58;1.23;;;15.50;99.90;;;;;;4322390;33;20076;-90
2022/06/07 02:01:49;;;;;;;4.72;1.33;;;15.50;99.90;;;;;;4321770;33;20550;-89
2022/06/07 02:04:42;;;;;;;2.87;0.77;;;15.40;99.90;;;;;;4320551;33;20083;-90
2022/06/07 02:07:10;;;;;;;0.50;0.50;;;15.40;99.90;;;;;;4323012;33;20099;-89
2022/06/07 02:09:41;;;;;;;0.40;0.40;;;15.30;99.90;;;;;;4324790;33;20084;-89
2022/06/07 02:12:18;;;;;;;0.55;0.55;;;15.40;99.90;;;;;;4322892;33;20071;-89
2022/06/07 02:14:54;;;;;;;0.47;0.47;;;15.40;99.90;;;;;;4323252;33;20079;-89
2022/06/07 02:17:27;;;;;;;0.50;0.50;;;15.40;99.90;;;;;;4322290;33;20534;-89
2022/06/07 02:20:05;;;;;;;0.28;0.28;;;15.40;99.90;;;;;;4324343;33;20200;-90
2022/06/07 02:22:37;;;;;;;0.35;0.35;;;15.40;99.90;;;;;;4322441;33;20528;-90
2022/06/07 02:25:12;;;;;;;1.08;0.60;;;15.40;99.90;;;;;;4324026;33;20075;-90
2022/06/07 02:27:43;;;;;;;0.50;0.50;;;15.40;99.90;;;;;;4322720;33;20445;-90
2022/06/07 02:30:22;;;;;;;0.55;0.52;;;15.30;99.90;;;;;;4322902;33;20417;-90
2022/06/07 02:32:57;;;;;;;0.22;0.22;;;15.20;99.90;;;;;;4323963;33;20114;-90
2022/06/07 02:35:34;;;;;;;0.30;0.30;;;15.20;99.90;;;;;;4322338;33;20092;-90
2022/06/07 02:38:15;;;;;;;0.40;0.40;;;15.20;99.90;;;;;;4322258;33;20100;-90
2022/06/07 02:40:48;;;;;;;0.77;0.77;;;15.20;99.90;;;;;;4322577;33;20076;-90
2022/06/07 02:43:28;;;;;;;0.82;0.68;;;15.30;99.90;;;;;;4322293;33;20152;-90
2022/06/07 02:46:19;;;;;;;0.45;0.45;;;15.30;99.90;;;;;;4322229;33;20063;-90
2022/06/07 02:48:53;;;;;;;0.30;0.30;;;15.30;99.90;;;;;;4321968;33;20079;-91
2022/06/07 02:51:22;;;;;;;0.90;0.60;;;15.20;99.90;;;;;;4322261;33;20083;-91
2022/06/07 02:53:58;;;;;;;0.40;0.40;;;15.20;99.90;;;;;;4323040;33;20083;-91
2022/06/07 02:56:34;;;;;;;1.48;1.12;;;15.20;99.90;;;;;;4323686;33;20081;-90
2022/06/07 02:59:17;;;;;;;0.35;0.35;;;15.20;99.90;;;;;;4322952;33;20108;-90
2022/06/07 03:01:51;;;;;;;1.55;0.65;;;15.20;99.90;;;;;;4321892;33;20072;-91
2022/06/07 03:04:33;;;;;;;0.50;0.50;;;15.10;99.90;;;;;;4323196;33;20099;-90
2022/06/07 03:07:07;;;;;;;1.10;0.55;;;15.10;99.90;;;;;;4325464;33;20125;-90
2022/06/07 03:09:49;;;;;;;0.40;0.40;;;15.10;99.90;;;;;;4324521;33;20115;-89
2022/06/07 03:12:44;;;;;;;0.88;0.70;;;15.10;99.90;;;;;;4325152;33;20393;-89
2022/06/07 03:15:39;;;;;;;0.85;0.73;;;15.00;99.90;;;;;;4324248;33;20100;-89
2022/06/07 03:18:17;;;;;;;0.50;0.50;;;15.10;99.90;;;;;;4324883;33;20127;-89
2022/06/07 03:20:53;;;;;;;0.40;0.40;;;15.20;99.90;;;;;;4322336;33;20362;-89
2022/06/07 03:23:27;;;;;;;0.35;0.35;;;15.20;99.90;;;;;;4324047;33;20147;-90
2022/06/07 03:26:15;;;;;;;2.00;0.60;;;15.20;99.90;;;;;;4322790;33;20080;-89
2022/06/07 03:29:02;;;;;;;1.98;0.60;;;15.20;99.90;;;;;;4323770;33;20059;-89
2022/06/07 03:31:38;;;;;;;0.70;0.52;;;15.30;99.90;;;;;;4321847;33;20160;-90
2022/06/07 03:34:20;;;;;;;1.10;0.95;;;15.40;99.90;;;;;;4325927;33;20076;-90
2022/06/07 03:37:02;;;;;;;0.85;0.68;;;15.40;99.90;;;;;;4321593;33;20067;-89
2022/06/07 03:39:30;;;;;;;1.40;0.73;;;15.40;99.90;;;;;;4321535;33;20076;-90
2022/06/07 03:42:21;;;;;;;0.43;0.43;;;15.30;99.90;;;;;;4323504;33;20199;-89
2022/06/07 03:44:50;;;;;;;2.35;0.65;;;15.30;99.90;;;;;;4325189;33;20547;-89
2022/06/07 03:47:24;;;;;;;0.43;0.43;;;15.30;99.90;;;;;;4323778;33;20083;-89
2022/06/07 03:50:04;;;;;;;0.85;0.47;;;15.30;99.90;;;;;;4323291;33;20114;-88
2022/06/07 03:52:35;;;;;;;0.50;0.50;;;15.40;99.90;;;;;;4326732;33;20138;-89
2022/06/07 03:55:06;;;;;;;1.33;0.52;;;15.40;99.90;;;;;;4326587;33;20554;-88
2022/06/07 03:57:54;;;;;;;0.35;0.35;;;15.40;99.90;;;;;;4326389;33;20080;-88
2022/06/07 04:00:28;;;;;;;1.35;0.57;;;15.40;99.90;;;;;;4324375;33;20084;-89
2022/06/07 04:02:59;;;;;;;0.30;0.30;;;15.50;99.90;;;;;;4324777;33;20064;-88
2022/06/07 04:05:35;;;;;;;0.40;0.40;;;15.40;99.90;;;;;;4323249;33;20129;-89
2022/06/07 04:08:12;;;;;;;0.35;0.35;;;15.30;99.90;;;;;;4328517;33;20087;-89
2022/06/07 04:10:51;;;;;;;0.37;0.37;;;15.30;99.90;;;;;;4324279;33;20072;-89
2022/06/07 04:13:22;;;;;;;0.50;0.50;;;15.20;99.90;;;;;;4325648;33;20133;-89
2022/06/07 04:16:05;;;;;;;0.57;0.57;;;15.20;99.90;;;;;;4325190;33;20079;-89
2022/06/07 04:18:36;;;;;;;0.40;0.40;;;15.20;99.90;;;;;;4325525;33;20120;-89
2022/06/07 04:21:13;;;;;;;0.40;0.40;;;15.30;99.90;;;;;;4326186;33;20056;-89
2022/06/07 04:23:47;;;;;;;2.17;0.85;;;15.30;99.90;;;;;;4325072;33;20068;-89
2022/06/07 04:26:17;;;;;;;3.08;0.60;;;15.30;99.90;;;;;;4324803;33;20497;-89
2022/06/07 04:28:45;;;;;;;0.40;0.40;;;15.40;99.90;;;;;;4324645;33;20479;-88
2022/06/07 04:31:20;;;;;;;4.95;0.60;;;15.50;99.90;;;;;;4323167;33;20091;-89
2022/06/07 04:33:58;;;;;;;0.60;0.60;;;15.50;99.90;;;;;;4322639;33;20083;-87
2022/06/07 04:36:28;;;;;;;0.65;0.50;;;15.50;99.90;;;;;;4324505;33;20052;-87
2022/06/07 04:39:14;;;;;;;0.40;0.40;;;15.50;99.90;;;;;;4325920;33;20120;-88
2022/06/07 04:41:47;;;;;;;0.40;0.40;;;15.50;99.90;;;;;;4327208;33;20083;-89
2022/06/07 04:44:31;;;;;;;0.30;0.30;;;15.50;99.90;;;;;;4326238;33;20102;-88
2022/06/07 04:47:02;;;;;;;1.85;1.10;;;15.70;99.90;;;;;;4324846;33;20072;-88
2022/06/07 04:49:35;;;;;;;0.37;0.37;;;15.80;99.90;;;;;;4326525;33;20079;-88
2022/06/07 04:52:07;;;;;;;0.40;0.40;;;15.70;99.90;;;;;;4326830;33;20577;-87
2022/06/07 04:54:37;;;;;;;0.37;0.37;;;15.70;99.90;;;;;;4324725;33;20129;-87
2022/06/07 04:57:06;;;;;;;0.40;0.40;;;15.80;99.90;;;;;;4324958;33;20140;-88
2022/06/07 05:00:03;;;;;;;0.30;0.30;;;15.80;99.90;;;;;;4322131;33;20112;-88
2022/06/07 05:02:31;;;;;;;0.30;0.30;;;15.90;99.90;;;;;;4324493;33;20092;-88
2022/06/07 05:04:59;;;;;;;0.25;0.25;;;15.90;99.90;;;;;;4323668;33;20072;-87
2022/06/07 05:07:25;;;;;;;0.30;0.30;;;16.00;99.90;;;;;;4322387;33;20131;-88
2022/06/07 05:09:52;;;;;;;0.40;0.40;;;15.90;99.90;;;;;;4321642;33;20131;-87
2022/06/07 05:12:44;;;;;;;0.32;0.32;;;15.90;99.90;;;;;;4323523;33;20501;-88
2022/06/07 05:15:13;;;;;;;0.30;0.30;;;15.80;99.90;;;;;;4322830;33;20123;-88
2022/06/07 05:18:12;;;;;;;10.68;0.60;;;15.90;99.90;;;;;;4321328;33;20096;-89
2022/06/07 05:20:44;;;;;;;0.40;0.40;;;15.90;99.90;;;;;;4325300;33;20071;-89
2022/06/07 05:23:16;;;;;;;0.45;0.45;;;16.00;99.90;;;;;;4323918;33;20123;-89
2022/06/07 05:28:58;;;;;;;0.30;0.30;;;16.20;99.90;;;;;;4323037;33;20534;-88
2022/06/07 05:31:44;;;;;;;0.40;0.40;;;16.30;99.90;;;;;;4325054;33;20084;-87
2022/06/07 05:34:15;;;;;;;1.23;0.35;;;16.40;99.90;;;;;;4324164;33;20068;-88
2022/06/07 05:36:54;;;;;;;0.30;0.30;;;16.50;99.90;;;;;;4323394;33;20083;-88
2022/06/07 05:39:40;;;;;;;1.00;0.90;;;16.50;99.90;;;;;;4323896;33;20064;-88
2022/06/07 05:42:07;;;;;;;0.25;0.25;;;16.60;99.90;;;;;;4324066;33;20084;-89
2022/06/07 05:44:36;;;;;;;0.47;0.45;;;16.70;99.90;;;;;;4324499;33;20075;-89
2022/06/07 05:47:04;;;;;;;0.40;0.40;;;16.90;99.90;;;;;;4326101;33;20075;-89
2022/06/07 05:49:33;;;;;;;0.40;0.40;;;16.90;99.90;;;;;;4320548;33;20091;-89
2022/06/07 05:52:01;;;;;;;3.00;0.40;;;17.00;99.90;;;;;;4323520;33;20593;-87
2022/06/07 05:54:34;;;;;;;0.50;0.50;;;17.00;99.90;;;;;;4323384;33;20079;-88
2022/06/07 05:57:14;;;;;;;0.47;0.47;;;17.10;99.90;;;;;;4323544;33;20435;-88
2022/06/07 05:59:51;;;;;;;0.30;0.30;;;17.20;99.90;;;;;;4330277;33;20084;-87
2022/06/07 06:02:21;;;;;;;0.32;0.32;;;17.30;99.90;;;;;;4323888;33;20087;-88
2022/06/07 06:04:49;;;;;;;0.30;0.30;;;17.30;99.90;;;;;;4323334;33;20491;-88
2022/06/07 06:07:26;;;;;;;0.40;0.40;;;17.40;99.90;;;;;;4321957;33;20505;-87
2022/06/07 06:10:20;;;;;;;0.50;0.50;;;17.50;99.90;;;;;;4321118;33;20080;-88
2022/06/07 06:13:02;;;;;;;1.02;0.40;;;17.40;99.90;;;;;;4320302;33;20123;-88
2022/06/07 06:15:31;;;;;;;0.22;0.22;;;17.50;99.90;;;;;;4320034;33;20153;-89
2022/06/07 06:18:05;;;;;;;0.47;0.40;;;17.50;99.90;;;;;;4321572;33;20128;-89
2022/06/07 06:20:35;;;;;;;0.45;0.37;;;17.50;99.90;;;;;;4320822;33;20562;-87
2022/06/07 06:23:08;;;;;;;0.30;0.30;;;17.60;99.90;;;;;;4327525;33;20156;-88
2022/06/07 06:25:42;;;;;;;0.32;0.32;;;17.80;99.90;;;;;;4320089;33;20088;-88
2022/06/07 06:28:10;;;;;;;0.40;0.40;;;17.90;99.90;;;;;;4317905;33;20461;-88
2022/06/07 06:30:36;;;;;;;0.65;0.65;;;17.90;99.90;;;;;;4320850;33;20130;-88
2022/06/07 06:33:06;;;;;;;0.30;0.30;;;18.10;99.90;;;;;;4320907;33;20076;-88
2022/06/07 06:35:32;;;;;;;0.30;0.30;;;18.20;99.90;;;;;;4319959;33;20116;-86
2022/06/07 06:37:59;;;;;;;0.43;0.40;;;18.30;99.90;;;;;;4319956;33;20099;-86
2022/06/07 06:40:26;;;;;;;0.57;0.57;;;18.40;99.90;;;;;;4326315;33;20493;-87
2022/06/07 06:42:55;;;;;;;0.40;0.40;;;18.40;99.90;;;;;;4320639;33;20083;-87
2022/06/07 06:45:21;;;;;;;0.62;0.62;;;18.30;99.90;;;;;;4320717;33;20141;-87
2022/06/07 06:47:47;;;;;;;0.20;0.20;;;18.30;99.90;;;;;;4319354;33;20528;-88
2022/06/07 06:50:14;;;;;;;0.43;0.43;;;18.50;99.90;;;;;;4321030;33;20138;-88
2022/06/07 06:52:40;;;;;;;0.30;0.30;;;18.60;99.90;;;;;;4321742;33;20081;-87
2022/06/07 06:55:07;;;;;;;2.15;0.75;;;18.80;99.90;;;;;;4321182;33;20072;-89
2022/06/07 06:57:34;;;;;;;0.30;0.30;;;18.90;99.90;;;;;;4322106;33;20103;-88
2022/06/07 07:00:09;;;;;;;0.75;0.40;;;18.90;99.90;;;;;;4321638;33;20083;-88
2022/06/07 07:02:42;;;;;;;0.40;0.40;;;19.00;99.90;;;;;;4323397;33;20154;-88
2022/06/07 07:05:11;;;;;;;0.30;0.30;;;19.00;99.90;;;;;;4322284;33;20099;-87
2022/06/07 07:07:37;;;;;;;1.20;0.40;;;19.10;99.90;;;;;;4321041;33;20492;-88
2022/06/07 07:10:10;;;;;;;0.50;0.50;;;19.00;99.90;;;;;;4319815;33;20528;-87
2022/06/07 07:12:40;;;;;;;0.30;0.30;;;19.00;99.90;;;;;;4320274;33;20091;-88
2022/06/07 07:15:13;;;;;;;0.30;0.30;;;19.00;99.90;;;;;;4320954;33;20068;-88
2022/06/07 07:17:46;;;;;;;0.30;0.30;;;19.10;99.90;;;;;;4319150;33;20156;-88
2022/06/07 07:20:12;;;;;;;0.30;0.30;;;19.30;99.90;;;;;;4323066;33;20138;-87
2022/06/07 07:22:43;;;;;;;0.47;0.47;;;19.40;99.90;;;;;;4321050;33;20068;-88
2022/06/07 07:25:18;;;;;;;0.73;0.40;;;19.50;99.90;;;;;;4321427;33;20095;-87
2022/06/07 07:27:48;;;;;;;0.40;0.40;;;19.50;99.90;;;;;;4323985;33;20087;-88
2022/06/07 07:30:14;;;;;;;0.32;0.32;;;19.40;99.90;;;;;;4323432;33;20475;-87
2022/06/07 07:32:40;;;;;;;0.30;0.30;;;19.50;99.90;;;;;;4323906;33;20457;-86
2022/06/07 07:35:07;;;;;;;0.30;0.30;;;19.60;99.90;;;;;;4323025;33;20075;-88
2022/06/07 07:37:33;;;;;;;0.30;0.30;;;19.70;99.90;;;;;;4322459;33;20175;-86
2022/06/07 07:39:59;;;;;;;0.40;0.40;;;19.70;99.90;;;;;;4322597;33;20189;-87
2022/06/07 07:42:26;;;;;;;0.28;0.28;;;19.80;99.90;;;;;;4324345;33;20115;-87
2022/06/07 07:44:52;;;;;;;0.28;0.28;;;20.00;99.90;;;;;;4322058;33;20591;-87
2022/06/07 07:47:17;;;;;;;0.30;0.30;;;20.20;99.90;;;;;;4324548;33;20068;-86
2022/06/07 07:49:43;;;;;;;0.30;0.30;;;20.40;99.90;;;;;;4327319;33;20071;-88
2022/06/07 07:52:29;;;;;;;0.20;0.20;;;20.60;99.90;;;;;;4322375;33;20108;-88
2022/06/07 07:55:07;;;;;;;0.30;0.30;;;20.60;99.90;;;;;;4325187;33;20076;-87
2022/06/07 07:57:36;;;;;;;0.30;0.30;;;20.70;99.90;;;;;;4323012;33;20084;-89
2022/06/07 08:00:03;;;;;;;0.43;0.32;;;20.90;99.90;;;;;;4323925;33;20084;-88
2022/06/07 08:02:30;;;;;;;0.25;0.25;;;21.00;99.30;;;;;;4322499;33;20349;-88
2022/06/07 08:05:04;;;;;;;0.22;0.22;;;21.10;99.80;;;;;;4323383;33;21080;-87
2022/06/07 08:07:30;;;;;;;0.30;0.30;;;21.40;99.30;;;;;;4324416;33;20541;-86
2022/06/07 08:09:57;;;;;;;0.20;0.20;;;21.60;98.90;;;;;;4322137;33;20105;-86
2022/06/07 08:12:24;;;;;;;0.13;0.13;;;21.90;99.40;;;;;;4321220;33;20084;-86
2022/06/07 08:14:50;;;;;;;0.35;0.20;;;22.10;97.70;;;;;;4322992;33;20144;-88
2022/06/07 08:17:17;;;;;;;0.30;0.30;;;22.10;98.00;;;;;;4325104;33;20107;-88
2022/06/07 08:19:43;;;;;;;1.67;0.60;;;22.20;97.70;;;;;;4321076;33;20076;-88
2022/06/07 08:22:10;;;;;;;0.28;0.28;;;22.10;96.90;;;;;;4322818;33;20099;-86
2022/06/07 08:24:37;;;;;;;0.10;0.10;;;22.30;98.00;;;;;;4322854;33;20084;-88
2022/06/07 08:27:03;;;;;;;0.40;0.40;;;22.40;97.70;;;;;;4323390;33;20076;-86
2022/06/07 08:29:30;;;;;;;0.20;0.20;;;22.30;97.50;;;;;;4324368;33;20096;-88
2022/06/07 08:31:55;;;;;;;0.32;0.30;;;22.30;97.80;;;;;;4323814;33;20103;-87
2022/06/07 08:37:42;;;;;;;0.30;0.30;;;22.50;97.80;;;;;;4320924;33;20068;-89
2022/06/07 08:39:56;;;;;;;0.30;0.30;;;22.30;97.60;;;;;;4316655;33;20176;-86
2022/06/07 08:42:35;;;;;;;2.47;0.93;;;22.40;97.80;;;;;;4322719;33;20096;-86
2022/06/07 08:45:07;;;;;;;0.20;0.20;;;22.40;96.70;;;;;;4321795;33;20469;-89
2022/06/07 08:47:56;;;;;;;0.40;0.40;;;22.50;96.30;;;;;;4322807;33;20156;-87
2022/06/07 08:50:30;;;;;;;0.20;0.20;;;22.50;95.60;;;;;;4323171;33;20143;-88
2022/06/07 08:53:12;;;;;;;0.40;0.40;;;22.50;95.80;;;;;;4322669;33;20079;-88
2022/06/07 08:55:49;;;;;;;0.82;0.68;;;22.20;96.80;;;;;;4324460;33;20214;-89
2022/06/07 08:58:25;;;;;;;0.20;0.20;;;22.10;97.10;;;;;;4321168;33;20125;-88
2022/06/07 09:00:59;;;;;;;0.32;0.32;;;22.00;96.90;;;;;;4321957;33;20099;-88
2022/06/07 09:03:59;;;;;;;0.20;0.20;;;22.00;97.60;;;;;;4322706;33;20557;-87
2022/06/07 09:06:29;;;;;;;0.25;0.25;;;22.00;97.60;;;;;;4311370;33;20075;-87
2022/06/07 09:08:57;;;;;;;0.30;0.30;;;22.20;97.10;;;;;;4321213;33;20123;-88
2022/06/07 09:12:34;;;;;;;0.20;0.20;;;22.00;96.90;;;;;;4324133;33;20124;-88
2022/06/07 09:14:25;;;;;;;0.30;0.30;;;21.80;97.20;;;;;;4322912;33;20095;-89
2022/06/07 09:16:53;;;;;;;0.22;0.22;;;21.80;97.80;;;;;;4322926;33;20104;-88
2022/06/07 09:19:25;;;;;;;0.32;0.32;;;21.70;98.30;;;;;;4325210;33;20107;-88
2022/06/07 09:21:53;;;;;;;0.30;0.30;;;22.00;98.50;;;;;;4325183;33;20084;-87
2022/06/07 09:24:27;;;;;;;0.30;0.30;;;22.10;97.00;;;;;;4309761;33;20101;-88
2022/06/07 09:27:16;;;;;;;0.30;0.30;;;22.20;98.10;;;;;;4324425;33;20579;-87
2022/06/07 09:29:57;;;;;;;0.20;0.20;;;22.40;98.40;;;;;;4324693;33;20230;-87
2022/06/07 09:32:27;;;;;;;0.20;0.20;;;22.80;95.70;;;;;;4323619;33;20111;-88
2022/06/07 09:35:08;;;;;;;0.30;0.30;;;22.90;95.70;;;;;;4321896;33;20150;-88
2022/06/07 09:37:51;;;;;;;0.35;0.35;;;23.20;95.80;;;;;;4321826;33;20217;-88
2022/06/07 09:43:50;;;;;;;0.40;0.40;;;23.70;94.50;;;;;;4307057;33;20103;-88
2022/06/07 09:46:27;;;;;;;0.50;0.50;;;23.60;93.30;;;;;;4322307;33;20441;-88
2022/06/07 09:48:56;;;;;;;0.30;0.30;;;23.40;93.30;;;;;;4320787;33;20115;-89
2022/06/07 09:51:27;;;;;;;1.02;0.52;;;23.20;93.60;;;;;;4322816;33;20052;-89
2022/06/07 09:54:04;;;;;;;6.53;1.08;;;23.10;94.10;;;;;;4324412;33;20093;-88
2022/06/07 09:57:15;;;;;;;0.25;0.25;;;22.90;93.40;;;;;;4322258;33;20092;-87
2022/06/07 09:59:58;;;;;;;0.35;0.35;;;22.80;93.70;;;;;;4315899;33;20390;-89
2022/06/07 10:02:42;;;;;;;0.28;0.28;;;22.90;93.60;;;;;;4323730;33;20079;-88
2022/06/07 10:05:26;;;;;;;2.08;0.30;;;22.90;93.80;;;;;;4323925;33;20096;-87
2022/06/07 10:08:07;;;;;;;0.22;0.22;;;22.80;94.20;;;;;;4323126;33;20088;-87
2022/06/07 10:10:51;;;;;;;0.10;0.10;;;22.80;93.50;;;;;;4321253;33;20087;-87
2022/06/07 10:13:45;;;;;;;0.30;0.30;;;23.00;93.90;;;;;;4321773;33;20075;-86
2022/06/07 10:16:39;;;;;;;0.40;0.40;;;23.10;93.80;;;;;;4314799;33;20675;-89
2022/06/07 10:19:16;;;;;;;0.47;0.47;;;23.20;93.00;;;;;;4323627;33;20188;-86
2022/06/07 10:22:12;;;;;;;0.20;0.20;;;23.20;93.10;;;;;;4321479;33;20568;-88
2022/06/07 10:25:04;;;;;;;0.30;0.30;;;23.40;92.90;;;;;;4322543;33;20150;-88
2022/06/07 10:27:40;;;;;;;1.98;0.43;;;23.70;91.30;;;;;;4317668;33;20219;-90
2022/06/07 10:30:31;;;;;;;0.30;0.30;;;24.00;90.50;;;;;;4324196;33;20088;-87
2022/06/07 10:33:08;;;;;;;0.20;0.20;;;23.80;90.40;;;;;;4321080;33;20068;-87
2022/06/07 10:35:41;;;;;;;0.10;0.10;;;24.00;90.10;;;;;;4329579;33;20490;-90
2022/06/07 10:38:36;;;;;;;0.30;0.30;;;24.40;89.90;;;;;;4323181;33;20079;-88
2022/06/07 10:41:27;;;;;;;0.32;0.32;;;24.70;90.40;;;;;;4324786;33;20128;-89
2022/06/07 10:43:59;;;;;;;0.22;0.22;;;24.90;89.70;;;;;;4323704;33;20079;-88
2022/06/07 10:46:31;;;;;;;0.25;0.25;;;24.80;86.20;;;;;;4321996;33;20071;-86
2022/06/07 10:49:07;;;;;;;0.20;0.20;;;25.00;87.70;;;;;;4322381;33;20373;-89
2022/06/07 10:52:33;;;;;;;0.17;0.17;;;25.00;88.50;;;;;;4334954;33;20076;-90
2022/06/07 10:55:03;;;;;;;0.55;0.55;;;25.30;87.60;;;;;;4323363;33;20139;-87
2022/06/07 10:57:58;;;;;;;0.20;0.20;;;25.40;87.40;;;;;;4323447;33;20116;-88
2022/06/07 11:00:33;;;;;;;0.32;0.32;;;25.70;87.90;;;;;;4322738;33;20484;-87
2022/06/07 11:03:11;;;;;;;0.20;0.20;;;25.80;88.20;;;;;;4321153;33;20071;-90
2022/06/07 11:09:21;;;;;;;;;;;24.90;87.10;;;;;;4313462;33;20084;-88
2022/06/07 11:11:42;;;;;;;0.20;0.20;;;24.30;88.90;;;;;;4320087;33;19951;-89
2022/06/07 11:14:45;;;;;;;0.43;0.30;;;24.20;90.20;;;;;;4323706;33;20111;-89
2022/06/07 11:17:36;;;;;;;0.30;0.30;;;24.20;90.10;;;;;;4323960;33;20379;-88
2022/06/07 11:20:30;;;;;;;0.20;0.20;;;24.50;90.10;;;;;;4324231;33;20064;-86
2022/06/07 11:23:29;;;;;;;0.20;0.20;;;24.70;89.70;;;;;;4325221;33;20108;-88
2022/06/07 11:26:15;;;;;;;0.20;0.20;;;24.80;89.10;;;;;;4322613;33;20064;-89
2022/06/07 11:28:46;;;;;;;0.10;0.10;;;24.50;88.00;;;;;;4323365;33;20092;-87
2022/06/07 11:31:26;;;;;;;;;;;24.20;89.80;;;;;;4323487;33;20064;-88
2022/06/07 11:33:54;;;;;;;0.55;0.40;;;23.90;90.30;;;;;;4322640;33;19951;-89
2022/06/07 11:36:41;;;;;;;1.17;0.68;;;23.40;91.20;;;;;;4309420;33;20299;-88
2022/06/07 11:39:22;;;;;;;0.98;0.70;;;23.20;91.90;;;;;;4320823;33;20071;-87
2022/06/07 11:41:55;;;;;;;0.20;0.20;;;23.20;92.60;;;;;;4319314;33;20067;-89
2022/06/07 11:44:40;;;;;;;0.73;0.35;;;22.90;92.10;;;;;;4311885;33;20165;-88
2022/06/07 11:47:33;;;;;;;0.20;0.20;;;22.80;92.90;;;;;;4320369;33;20208;-88
2022/06/07 11:50:28;;;;;;;0.45;0.45;;;22.90;90.70;;;;;;4323564;33;20088;-89
2022/06/07 11:53:00;;;;;;;0.28;0.28;;;23.10;92.20;;;;;;4321636;33;20137;-90
2022/06/07 11:55:46;;;;;;;;;;;23.10;92.50;;;;;;4325481;33;20120;-90
2022/06/07 11:58:55;;;;;;;0.40;0.40;;;23.20;91.10;;;;;;4325009;33;19976;-89
2022/06/07 12:01:34;;;;;;;0.25;0.25;;;23.20;91.20;;;;;;4321735;33;20075;-87
2022/06/07 12:04:38;;;;;;;0.20;0.20;;;23.50;89.20;;;;;;4323331;33;20185;-90
2022/06/07 12:07:27;;;;;;;0.20;0.20;;;23.70;90.40;;;;;;4325638;33;20488;-92
2022/06/07 12:10:17;;;;;;;0.10;0.10;;;24.20;87.00;;;;;;4323105;33;20132;-89
2022/06/07 12:12:57;;;;;;;0.13;0.13;;;24.40;86.00;;;;;;4328697;33;20122;-92
2022/06/07 12:15:50;;;;;;;2.78;0.25;;;24.30;83.90;;;;;;4327673;33;20079;-91
2022/06/07 12:19:14;;;;;;;0.20;0.20;;;24.10;83.90;;;;;;4324614;33;20079;-90
2022/06/07 12:21:53;;;;;;;0.20;0.20;;;24.00;85.20;;;;;;4324543;33;20253;-89
2022/06/07 12:24:28;;;;;;;0.20;0.20;;;23.90;85.40;;;;;;4323654;33;20083;-91
2022/06/07 12:27:15;;;;;;;0.15;0.15;;;23.90;84.90;;;;;;4326676;33;20079;-90
2022/06/07 12:29:44;;;;;;;0.10;0.10;;;23.80;85.90;;;;;;4324004;33;20413;-89
2022/06/07 12:32:40;;;;;;;0.65;0.62;;;24.10;86.10;;;;;;4325239;33;20162;-88
2022/06/07 12:35:27;;;;;;;0.20;0.20;;;24.00;87.10;;;;;;4326941;33;20115;-89
2022/06/07 12:38:04;;;;;;;0.10;0.10;;;24.00;85.90;;;;;;4323321;33;20067;-91
2022/06/07 12:40:58;;;;;;;0.20;0.20;;;23.60;87.50;;;;;;4324396;33;20099;-90
2022/06/07 12:43:31;;;;;;;0.10;0.10;;;23.50;87.00;;;;;;4326005;33;20095;-90
2022/06/07 12:46:04;;;;;;;0.17;0.17;;;23.20;88.10;;;;;;4323008;33;20076;-88
2022/06/07 12:49:11;;;;;;;0.13;0.13;;;23.20;88.70;;;;;;4326667;33;20642;-91
2022/06/07 12:51:53;;;;;;;0.10;0.10;;;23.10;87.60;;;;;;4326426;33;20104;-90
2022/06/07 12:54:24;;;;;;;0.10;0.10;;;23.20;87.80;;;;;;4328803;27;20084;-65
2022/06/07 12:56:51;;;;;;;0.45;0.45;;;23.30;88.00;;;;;;4307199;33;20076;-64
2022/06/07 12:59:28;;;;;;;0.20;0.20;;;23.50;88.40;;;;;;4305612;33;20516;-64
2022/06/07 13:01:54;;;;;;;0.30;0.30;;;23.60;87.30;;;;;;4306289;33;20056;-65
2022/06/07 13:04:31;;;;;;;0.10;0.10;;;24.00;87.70;;;;;;4306180;33;20148;-66
2022/06/07 13:06:59;;;;;;;0.10;0.10;;;24.70;84.20;;;;;;4305067;33;20095;-65
2022/06/07 13:09:25;;;;;;;0.10;0.10;;;25.20;83.10;;;;;;4303037;33;20075;-65
2022/06/07 13:11:52;;;;;;;0.10;0.10;;;25.70;82.70;;;;;;4305936;33;20133;-65
2022/06/07 13:14:18;;;;;;;0.05;0.05;;;25.80;83.90;;;;;;4304949;33;20079;-65
2022/06/07 13:16:46;;;;;;;0.30;0.30;;;25.70;81.60;;;;;;4302853;33;20092;-65
2022/06/07 13:19:15;;;;;;;0.13;0.13;;;26.10;81.10;;;;;;4304660;33;20071;-65
2022/06/07 13:21:43;;;;;;;0.10;0.10;;;27.10;79.30;;;;;;4305342;33;20112;-65
2022/06/07 13:24:20;;;;;;;0.10;0.10;;;28.00;78.40;;;;;;4302387;33;20529;-65
2022/06/07 13:26:47;;;;;;;0.40;0.40;;;28.00;75.10;;;;;;4302288;33;20060;-65
2022/06/07 13:29:23;;;;;;;0.17;0.17;;;27.90;74.40;;;;;;4302465;33;20477;-65
2022/06/07 13:31:51;;;;;;;0.10;0.10;;;27.50;73.10;;;;;;4302658;33;20501;-65
2022/06/07 13:34:31;;;;;;;0.03;0.03;;;27.30;76.60;;;;;;4303394;33;20469;-65
2022/06/07 13:37:19;;;;;;;0.05;0.05;;;27.00;76.30;;;;;;4304711;33;20080;-65
2022/06/07 13:40:09;;;;;;;0.10;0.10;;;27.00;74.60;;;;;;4299966;33;20107;-65
2022/06/07 13:42:39;;;;;;;0.10;0.10;;;27.70;74.00;;;;;;4286584;33;20063;-65
2022/06/07 13:45:14;;;;;;;0.10;0.10;;;27.20;74.30;;;;;;4299688;33;20080;-65
2022/06/07 13:48:06;;;;;;;0.00;0.00;;;26.40;75.20;;;;;;4303908;33;20067;-65
2022/06/07 13:53:46;;;;;;;0.13;0.13;;;25.40;76.60;;;;;;4301994;33;20532;-64
2022/06/07 13:56:15;;;;;;;0.08;0.08;;;24.90;75.10;;;;;;4299038;33;20072;-64
2022/06/07 13:58:46;;;;;;;0.20;0.10;;;24.70;77.10;;;;;;4302894;33;20092;-65
2022/06/07 14:01:20;;;;;;;1.15;0.73;;;24.60;77.10;;;;;;4301998;33;20084;-65